Aérodrome de Castelnaudary-Villeneuve

LFMW · Occitanie, Frankrijk

6 oktober 2022

Tijd Code Weer Temp. Zicht Plafond Wind METAR/SPECI
17:30
V
21 °C 10 km+ - 300° 300° 6 kt METAR LFCR 061530Z AUTO 30006KT 280V360 CAVOK 21/13 Q1028 NOSIG
17:00
V
21 °C 10 km+ - 310° 310° 5 kt METAR LFCR 061500Z AUTO 31005KT 230V010 9999 FEW033 21/13 Q1028 NOSIG
16:30
V
21 °C 10 km+ - 290° 290° 6 kt METAR LFCR 061430Z AUTO 29006KT 260V330 9999 FEW033 21/14 Q1028 NOSIG
16:00
V
21 °C 10 km+ - 310° 310° 5 kt METAR LFCR 061400Z AUTO 31005KT 230V360 9999 FEW032 21/13 Q1028 NOSIG
15:30
V
22 °C 10 km+ - Var Var 4 kt METAR LFCR 061330Z AUTO VRB04KT 9999 SCT037 22/13 Q1029 NOSIG
15:00
V
20 °C 10 km+ - 310° 310° 6 kt METAR LFCR 061300Z AUTO 31006KT 280V340 9999 SCT030 SCT037 20/13 Q1029 NOSIG
14:30
V
20 °C 10 km+ - 340° 340° 5 kt METAR LFCR 061230Z AUTO 34005KT 310V090 9999 FEW028 20/14 Q1029 NOSIG
14:00
V
20 °C 10 km+ - 320° 320° 5 kt METAR LFCR 061200Z AUTO 32005KT 270V350 9999 FEW025 SCT039 20/14 Q1030 NOSIG
13:30
V
18 °C 10 km+ 3.900 ft 320° 320° 6 kt METAR LFCR 061130Z AUTO 32006KT 290V010 9999 FEW020 SCT030 OVC039 18/13 Q1030 NOSIG
13:00
M
18 °C 10 km+ 2.500 ft 310° 310° 5 kt METAR LFCR 061100Z AUTO 31005KT 270V350 9999 BKN025 BKN030 18/13 Q1030 NOSIG
12:30
M
18 °C 10 km+ 2.100 ft 320° 320° 5 kt METAR LFCR 061030Z AUTO 32005KT 280V010 9999 BKN021 BKN028 18/13 Q1030 NOSIG
12:00
M
18 °C 10 km+ 2.100 ft 290° 290° 4 kt METAR LFCR 061000Z AUTO 29004KT 250V340 9999 SCT016 BKN021 18/14 Q1030 NOSIG
11:30
V
18 °C 10 km+ - Var Var 3 kt METAR LFCR 060930Z AUTO VRB03KT 9999 SCT013 18/14 Q1031 NOSIG
11:00
M
16 °C 10 km+ 2.300 ft 260° 260° 3 kt METAR LFCR 060900Z AUTO 26003KT 220V320 9999 FEW016 BKN023 16/14 Q1031 NOSIG
10:30
M
15 °C 10 km+ 2.400 ft Var Var 2 kt METAR LFCR 060830Z AUTO VRB02KT 9999 OVC024 15/13 Q1031 NOSIG
10:00
M
15 °C 10 km+ 2.200 ft 360° 360° 5 kt METAR LFCR 060800Z AUTO 36005KT 9999 BKN022 15/13 Q1031 NOSIG
09:30
V
14 °C 10 km+ - Var Var 2 kt METAR LFCR 060730Z AUTO VRB02KT CAVOK 14/13 Q1030 NOSIG
09:00
V
13 °C 8 km - 030° 030° 2 kt METAR LFCR 060700Z AUTO 03002KT 8000 NSC 13/13 Q1030 NOSIG
08:30
M
12 °C 6 km - 230° 230° 2 kt METAR LFCR 060630Z AUTO 23002KT 6000 NSC 12/12 Q1029 NOSIG
08:00
M
12 °C 8 km 2.300 ft 170° 170° 2 kt METAR LFCR 060600Z AUTO 17002KT 8000 BKN023 12/12 Q1029 NOSIG
07:30
M
13 °C 10 km+ 2.300 ft Var Var 2 kt METAR LFCR 060530Z AUTO VRB02KT 9999 OVC023 13/12 Q1029 BECMG BKN013
07:00
M
13 °C 10 km+ 1.900 ft 190° 190° 2 kt METAR LFCR 060500Z AUTO 19002KT 9999 OVC019 13/12 Q1029 BECMG BKN013
06:30
M
13 °C 10 km+ 2.100 ft 210° 210° 3 kt METAR LFCR 060430Z AUTO 21003KT 9999 SCT015 OVC021 13/12 Q1029 BECMG BKN013
06:00
M
13 °C 10 km+ 1.700 ft Var 000° 0 kt METAR LFCR 060400Z AUTO 00000KT 9999 OVC017 13/12 Q1029 TEMPO 2000 BR BECMG BKN013
05:30
M
13 °C 10 km+ 1.800 ft 180° 180° 2 kt METAR LFCR 060330Z AUTO 18002KT 9999 BKN018 OVC038 13/12 Q1029 TEMPO 2000 BR BECMG BKN013
05:00
M
12 °C 10 km+ 1.600 ft 170° 170° 1 kt METAR LFCR 060300Z AUTO 17001KT 9999 BKN016 OVC022 12/12 Q1029 TEMPO 2000 BR BKN003
04:30
M
12 °C 10 km+ 2.400 ft Var 000° 0 kt METAR LFCR 060230Z AUTO 00000KT 9999 FEW018 BKN024 OVC038 12/12 Q1029 TEMPO 2000 BR BKN003
04:00
V
12 °C 10 km+ 3.700 ft Var 000° 0 kt METAR LFCR 060200Z AUTO 00000KT 9999 OVC037 12/12 Q1029 TEMPO 2000 BR BKN003
03:30
V
12 °C 10 km+ 3.600 ft Var 000° 0 kt METAR LFCR 060130Z AUTO 00000KT 9999 OVC036 12/12 Q1029 TEMPO 2000 BR BKN003
03:00
V
11 °C 10 km+ 3.500 ft 140° 140° 2 kt METAR LFCR 060100Z AUTO 14002KT 9999 BKN035 11/11 Q1029 TEMPO 2000 BR BKN003
02:30
I
12 °C 2,1 km - 130° 130° 3 kt METAR LFCR 060030Z AUTO 13003KT 7000 2100 NSC 12/11 Q1029 TEMPO 2000 BR BKN003
02:00
V
13 °C 10 km+ - 090° 090° 4 kt METAR LFCR 060000Z AUTO 09004KT 9999 FEW033 13/12 Q1029 NOSIG
01:30
V
12 °C 10 km+ - 110° 110° 4 kt METAR LFCR 052330Z AUTO 11004KT 9999 FEW034 12/11 Q1029 NOSIG
01:00
V
12 °C 10 km+ - 120° 120° 4 kt METAR LFCR 052300Z AUTO 12004KT CAVOK 12/11 Q1029 NOSIG
00:30
V
12 °C 10 km+ - 110° 110° 3 kt METAR LFCR 052230Z AUTO 11003KT CAVOK 12/11 Q1029 NOSIG
00:00
V
14 °C 10 km+ - 100° 100° 3 kt METAR LFCR 052200Z AUTO 10003KT CAVOK 14/12 Q1029 NOSIG

5 oktober 2022

Tijd Code Weer Temp. Zicht Plafond Wind METAR/SPECI
23:30
V
15 °C 10 km+ - 110° 110° 5 kt METAR LFCR 052130Z AUTO 11005KT 9999 FEW037 15/12 Q1029 NOSIG
23:00
V
15 °C 10 km+ 3.800 ft 100° 100° 4 kt METAR LFCR 052100Z AUTO 10004KT 9999 BKN038 15/12 Q1029 NOSIG
22:30
V
15 °C 10 km+ - 110° 110° 4 kt METAR LFCR 052030Z AUTO 11004KT CAVOK 15/12 Q1028 NOSIG
22:00
V
15 °C 10 km+ - 110° 110° 6 kt METAR LFCR 052000Z AUTO 11006KT CAVOK 15/12 Q1028 NOSIG
21:30
V
16 °C 10 km+ - 110° 110° 4 kt METAR LFCR 051930Z AUTO 11004KT CAVOK 16/12 Q1027 NOSIG
21:00
V
16 °C 10 km+ - 120° 120° 5 kt METAR LFCR 051900Z AUTO 12005KT CAVOK 16/13 Q1027 NOSIG
20:30
V
15 °C 10 km+ - 130° 130° 6 kt METAR LFCR 051830Z AUTO 13006KT CAVOK 15/12 Q1027 NOSIG
20:00
V
17 °C 10 km+ - 120° 120° 5 kt METAR LFCR 051800Z AUTO 12005KT CAVOK 17/12 Q1026 NOSIG
19:30
V
17 °C 10 km+ - 140° 140° 7 kt METAR LFCR 051730Z AUTO 14007KT CAVOK 17/12 Q1026 NOSIG
19:00
V
18 °C 10 km+ - 130° 130° 10 kt METAR LFCR 051700Z AUTO 13010KT CAVOK 18/12 Q1025 NOSIG
18:30
V
20 °C 10 km+ - 130° 130° 10 kt METAR LFCR 051630Z AUTO 13010KT CAVOK 20/13 Q1025 NOSIG
18:00
V
20 °C 10 km+ - 130° 130° 11 kt METAR LFCR 051600Z AUTO 13011KT CAVOK 20/12 Q1025 NOSIG
17:30
V
21 °C 10 km+ - 120° 120° 11 kt METAR LFCR 051530Z AUTO 12011KT CAVOK 21/13 Q1024 NOSIG
17:00
V
21 °C 10 km+ - 130° 130° 11 kt METAR LFCR 051500Z AUTO 13011KT 9999 FEW032 21/13 Q1024 NOSIG
16:30
V
21 °C 10 km+ - 140° 140° 11 kt METAR LFCR 051430Z AUTO 14011KT 110V180 9999 FEW034 21/13 Q1024 NOSIG
16:00
V
21 °C 10 km+ - 120° 120° 13 kt METAR LFCR 051400Z AUTO 12013KT 9999 FEW034 21/13 Q1024 NOSIG
15:30
V
21 °C 10 km+ - 140° 140° 12 kt METAR LFCR 051330Z AUTO 14012KT 9999 FEW035 21/12 Q1024 NOSIG
15:00
V
21 °C 10 km+ - 160° 160° 11 kt METAR LFCR 051300Z AUTO 16011KT 120V190 CAVOK 21/13 Q1024 NOSIG
14:30
V
21 °C 10 km+ - 150° 150° 11 kt METAR LFCR 051230Z AUTO 15011KT 120V180 CAVOK 21/12 Q1025 NOSIG
14:00
V
22 °C 10 km+ - 120° 120° 12 kt METAR LFCR 051200Z AUTO 12012KT CAVOK 22/14 Q1025 NOSIG
13:30
V
22 °C 10 km+ - 130° 130° 12 kt METAR LFCR 051130Z AUTO 13012KT 100V160 CAVOK 22/13 Q1025 NOSIG
13:00
V
20 °C 10 km+ - 140° 140° 11 kt METAR LFCR 051100Z AUTO 14011KT 110V170 CAVOK 20/12 Q1025 NOSIG
12:30
V
20 °C 10 km+ - 140° 140° 14 kt METAR LFCR 051030Z AUTO 14014KT CAVOK 20/12 Q1025 NOSIG
12:00
V
19 °C 10 km+ - 140° 140° 15 kt METAR LFCR 051000Z AUTO 14015KT CAVOK 19/12 Q1025 NOSIG
11:30
V
19 °C 10 km+ - 140° 140° 15 kt METAR LFCR 050930Z AUTO 14015KT CAVOK 19/11 Q1025 NOSIG
11:00
V
18 °C 10 km+ - 130° 130° 11 kt METAR LFCR 050900Z AUTO 13011KT CAVOK 18/11 Q1025 NOSIG
10:30
V
17 °C 10 km+ - 120° 120° 10 kt METAR LFCR 050830Z AUTO 12010KT CAVOK 17/11 Q1024 NOSIG
10:00
V
16 °C 10 km+ - 120° 120° 8 kt METAR LFCR 050800Z AUTO 12008KT CAVOK 16/11 Q1024 NOSIG
09:30
V
14 °C 10 km+ - 100° 100° 5 kt METAR LFCR 050730Z AUTO 10005KT CAVOK 14/10 Q1024 NOSIG
09:00
V
11 °C 10 km+ - Var 000° 0 kt METAR LFCR 050700Z AUTO 00000KT CAVOK 11/10 Q1024 NOSIG
08:30
V
10 °C 10 km+ - 140° 140° 4 kt METAR LFCR 050630Z AUTO 14004KT CAVOK 10/09 Q1024 NOSIG
08:00
V
8 °C 10 km+ - 120° 120° 5 kt METAR LFCR 050600Z AUTO 12005KT CAVOK 08/07 Q1023 NOSIG
07:30
V
9 °C 10 km+ - 110° 110° 4 kt METAR LFCR 050530Z AUTO 11004KT CAVOK 09/09 Q1023 NOSIG
07:00
V
8 °C 10 km+ - 120° 120° 2 kt METAR LFCR 050500Z AUTO 12002KT CAVOK 08/07 Q1023 NOSIG
06:30
V
10 °C 10 km+ - 160° 160° 3 kt METAR LFCR 050430Z AUTO 16003KT CAVOK 10/09 Q1023 NOSIG
06:00
V
9 °C 10 km+ - 150° 150° 3 kt METAR LFCR 050400Z AUTO 15003KT CAVOK 09/08 Q1023 NOSIG
05:30
V
11 °C 10 km+ - 120° 120° 4 kt METAR LFCR 050330Z AUTO 12004KT CAVOK 11/09 Q1023 NOSIG
05:00
V
10 °C 10 km+ - 110° 110° 3 kt METAR LFCR 050300Z AUTO 11003KT 060V140 CAVOK 10/09 Q1024 NOSIG
04:30
V
10 °C 10 km+ - 140° 140° 4 kt METAR LFCR 050230Z AUTO 14004KT CAVOK 10/09 Q1024 NOSIG
04:00
V
11 °C 10 km+ - 130° 130° 3 kt METAR LFCR 050200Z AUTO 13003KT CAVOK 11/09 Q1024 NOSIG
03:30
V
11 °C 10 km+ - 130° 130° 5 kt METAR LFCR 050130Z AUTO 13005KT CAVOK 11/10 Q1024 NOSIG
03:00
V
11 °C 10 km+ - 110° 110° 3 kt METAR LFCR 050100Z AUTO 11003KT CAVOK 11/10 Q1024 NOSIG
02:30
V
12 °C 10 km+ - 110° 110° 3 kt METAR LFCR 050030Z AUTO 11003KT CAVOK 12/10 Q1024 NOSIG
02:00
V
12 °C 10 km+ - Var Var 3 kt METAR LFCR 050000Z AUTO VRB03KT CAVOK 12/10 Q1024 NOSIG
01:30
V
12 °C 10 km+ - 140° 140° 7 kt METAR LFCR 042330Z AUTO 14007KT CAVOK 12/10 Q1024 NOSIG
01:00
V
11 °C 10 km+ - Var Var 2 kt METAR LFCR 042300Z AUTO VRB02KT CAVOK 11/10 Q1024 NOSIG
00:30
V
12 °C 10 km+ - 140° 140° 4 kt METAR LFCR 042230Z AUTO 14004KT CAVOK 12/09 Q1024 NOSIG
00:00
V
12 °C 10 km+ - 140° 140° 5 kt METAR LFCR 042200Z AUTO 14005KT CAVOK 12/10 Q1024 NOSIG

4 oktober 2022

Tijd Code Weer Temp. Zicht Plafond Wind METAR/SPECI
23:30
V
13 °C 10 km+ - 120° 120° 4 kt METAR LFCR 042130Z AUTO 12004KT 080V140 CAVOK 13/11 Q1024 NOSIG
23:00
V
11 °C 10 km+ - 160° 160° 5 kt METAR LFCR 042100Z AUTO 16005KT CAVOK 11/10 Q1024 NOSIG
22:30
V
12 °C 10 km+ - 100° 100° 2 kt METAR LFCR 042030Z AUTO 10002KT CAVOK 12/10 Q1024 NOSIG
22:00
V
13 °C 10 km+ - 200° 200° 2 kt METAR LFCR 042000Z AUTO 20002KT CAVOK 13/11 Q1024 NOSIG
21:30
V
13 °C 10 km+ - 220° 220° 3 kt METAR LFCR 041930Z AUTO 22003KT CAVOK 13/11 Q1024 NOSIG
21:00
V
14 °C 10 km+ - 200° 200° 3 kt METAR LFCR 041900Z AUTO 20003KT CAVOK 14/11 Q1023 NOSIG
20:30
V
16 °C 10 km+ - 290° 290° 1 kt METAR LFCR 041830Z AUTO 29001KT CAVOK 16/11 Q1023 NOSIG
20:00
V
17 °C 10 km+ - Var Var 1 kt METAR LFCR 041800Z AUTO VRB01KT CAVOK 17/11 Q1023 NOSIG
19:30
V
19 °C 10 km+ - 320° 320° 3 kt METAR LFCR 041730Z AUTO 32003KT CAVOK 19/12 Q1023 NOSIG
19:00
V
21 °C 10 km+ - 330° 330° 4 kt METAR LFCR 041700Z AUTO 33004KT CAVOK 21/12 Q1023 NOSIG
18:30
V
21 °C 10 km+ - 290° 290° 5 kt METAR LFCR 041630Z AUTO 29005KT 240V320 CAVOK 21/12 Q1022 NOSIG
18:00
V
22 °C 10 km+ - 290° 290° 4 kt METAR LFCR 041600Z AUTO 29004KT 150V320 CAVOK 22/12 Q1022 NOSIG
17:30
V
22 °C 10 km+ - 330° 330° 5 kt METAR LFCR 041530Z AUTO 33005KT 290V030 CAVOK 22/12 Q1022 NOSIG
17:00
V
22 °C 10 km+ - 300° 300° 5 kt METAR LFCR 041500Z AUTO 30005KT 230V360 CAVOK 22/11 Q1022 NOSIG
Oudere gegevens

Met cookies volgen wij en derde partijen jouw internetgedrag binnen onze site. Als je verdergaat gaan we ervan uit dat je dit goedvindt. Meer info